»·PEaware :: N850R KCHD-KPRC

N850R :: KCHD-KPRC

FLIGHT INFORMATION

Flight Status: Arrived
Operator: Privately registered:
United States
More flights under this callsign
Pilot: Anonymous 39792 (39792)
Aircraft: BEECH AIRCRAFT DEBONAIR BONANZA
(BE33)
More flights by this aircraft type
Origin: KCHD Chandler Mun
United States
Destination: KPRC Love
United States
More flights between these airports :: More routes between these airports
Route: TFD V105 DRK
File this flight plan on PilotEdge
Remarks: VR - hoping to practice a hold
Altitude:
(Current/Filed)
8,000ft
Speed:
(Current/Filed)
155kts
Departed: 04-Oct-23 08:06 AM
Arrived: 04-Oct-23 08:59 AM
Distance/Time
Traveled:
88nm/0:53
Distance/Time
To Go:
Arrived

Flight Plot

Page will automatically refresh every two minutes.

Flight plan parsing failed; only flown route is shown


Map Options




Map Legend


Flown Route
Filed Route
Departure Airport
Arrival Airport
Navaid (VOR, NDB)
Fix

Horizontal Profiles

Position Reports

Time Latitude Longitude Heading Altitude Ground
Speed
04-Oct-23 07:43 33.270394 -111.813931 139 1253ft 0kts
04-Oct-23 07:44 33.270394 -111.813931 139 1253ft 0kts
04-Oct-23 07:45 33.270394 -111.813931 139 1253ft 0kts
04-Oct-23 07:46 33.270394 -111.813931 139 1253ft 0kts
04-Oct-23 07:47 33.270394 -111.813931 139 1253ft 0kts
04-Oct-23 07:48 33.270394 -111.813931 139 1253ft 0kts
04-Oct-23 07:49 33.270394 -111.813931 139 1253ft 0kts
04-Oct-23 07:50 33.270394 -111.813931 139 1253ft 0kts
04-Oct-23 07:51 33.270394 -111.813931 139 1253ft 0kts
04-Oct-23 07:52 33.270394 -111.813931 139 1253ft 0kts
04-Oct-23 07:53 33.270394 -111.813931 139 1249ft 0kts
04-Oct-23 07:54 33.270394 -111.813931 139 1249ft 0kts
04-Oct-23 07:55 33.270394 -111.813931 139 1249ft 0kts
04-Oct-23 07:56 33.270394 -111.813931 139 1246ft 0kts
04-Oct-23 07:57 33.270394 -111.813931 139 1246ft 0kts
04-Oct-23 07:58 33.270394 -111.813931 139 1246ft 0kts
04-Oct-23 07:59 33.270394 -111.813931 139 1246ft 0kts
04-Oct-23 08:00 33.270394 -111.813931 139 1246ft 0kts
04-Oct-23 08:01 33.270319 -111.813126 139 1252ft 10kts
04-Oct-23 08:02 33.272278 -111.809405 145 1247ft 0kts
04-Oct-23 08:03 33.272278 -111.809405 145 1247ft 0kts
04-Oct-23 08:04 33.272257 -111.809387 143 1247ft 3kts
04-Oct-23 08:05 33.261618 -111.823550 231 1490ft 118kts
04-Oct-23 08:06 33.226370 -111.823956 168 2055ft 152kts
04-Oct-23 08:07 33.185774 -111.831301 196 2872ft 139kts
04-Oct-23 08:08 33.149896 -111.840604 193 3951ft 127kts
04-Oct-23 08:09 33.116012 -111.849223 189 5022ft 121kts
04-Oct-23 08:10 33.092073 -111.869520 264 5912ft 130kts
04-Oct-23 08:11 33.090430 -111.918192 268 5991ft 157kts
04-Oct-23 08:12 33.089402 -111.970982 269 6230ft 150kts
04-Oct-23 08:13 33.088498 -112.016474 269 7190ft 129kts
04-Oct-23 08:14 33.100490 -112.045637 2 8135ft 114kts
04-Oct-23 08:15 33.131454 -112.039079 9 9006ft 115kts
04-Oct-23 08:16 33.163198 -112.030797 9 9750ft 116kts
04-Oct-23 08:17 33.198272 -112.022842 3 9968ft 141kts
04-Oct-23 08:18 33.239182 -112.014334 8 9985ft 156kts
04-Oct-23 08:19 33.280955 -111.999219 17 9982ft 159kts
04-Oct-23 08:20 33.322783 -111.981483 2 9982ft 158kts
04-Oct-23 08:21 33.366674 -111.978039 3 9981ft 159kts
04-Oct-23 08:22 33.410782 -111.972829 2 9986ft 159kts
04-Oct-23 08:23 33.453212 -111.982446 334 9987ft 155kts
04-Oct-23 08:24 33.491720 -112.005891 331 9986ft 155kts
04-Oct-23 08:25 33.523569 -112.025258 331 9979ft 154kts
04-Oct-23 08:26 33.562057 -112.048737 331 9985ft 156kts
04-Oct-23 08:27 33.600700 -112.072314 331 10001ft 155kts
04-Oct-23 08:28 33.639282 -112.095875 331 10003ft 155kts
04-Oct-23 08:29 33.677909 -112.119497 331 10001ft 156kts
04-Oct-23 08:30 33.716717 -112.143244 331 9998ft 156kts
04-Oct-23 08:31 33.755632 -112.167085 331 10005ft 153kts
04-Oct-23 08:32 33.783091 -112.183971 329 9996ft 102kts
04-Oct-23 08:33 33.815460 -112.203769 330 10004ft 149kts
04-Oct-23 08:34 33.853484 -112.227117 331 9997ft 156kts
04-Oct-23 08:35 33.892525 -112.251127 331 10002ft 159kts
04-Oct-23 08:36 33.932496 -112.275732 331 10004ft 162kts
04-Oct-23 08:37 33.972615 -112.300450 330 9984ft 159kts
04-Oct-23 08:38 34.011862 -112.324650 330 10002ft 158kts
04-Oct-23 08:39 34.051278 -112.348985 330 9921ft 164kts
04-Oct-23 08:40 34.092179 -112.374265 331 9803ft 161kts
04-Oct-23 08:41 34.131394 -112.398516 330 9820ft 159kts
04-Oct-23 08:42 34.170958 -112.423039 331 9823ft 160kts
04-Oct-23 08:43 34.211335 -112.448042 330 9820ft 164kts
04-Oct-23 08:44 34.252729 -112.468547 3 9819ft 165kts
04-Oct-23 08:45 34.298183 -112.458018 9 9836ft 167kts
04-Oct-23 08:46 34.334580 -112.448385 10 9865ft 168kts
04-Oct-23 08:47 34.380107 -112.436259 10 9897ft 167kts
04-Oct-23 08:48 34.425838 -112.424047 10 9938ft 167kts
04-Oct-23 08:49 34.472284 -112.411816 10 9979ft 170kts
04-Oct-23 08:50 34.518256 -112.399687 10 9956ft 172kts
04-Oct-23 08:51 34.567311 -112.387056 10 9365ft 179kts
04-Oct-23 08:52 34.611553 -112.375778 68 8264ft 168kts
04-Oct-23 08:53 34.585652 -112.366101 266 7331ft 155kts
04-Oct-23 08:54 34.621037 -112.395031 329 6125ft 151kts
04-Oct-23 08:55 34.649668 -112.394500 48 6115ft 117kts
04-Oct-23 08:56 34.671162 -112.397082 268 5371ft 97kts
04-Oct-23 08:57 34.656960 -112.416937 221 4991ft 44kts
04-Oct-23 08:58 34.651131 -112.422423 152 5020ft 3kts
04-Oct-23 08:59 34.648380 -112.424230 219 5023ft 19kts
04-Oct-23 09:00 34.646451 -112.424605 224 5026ft 0kts
04-Oct-23 09:01 34.646451 -112.424605 224 5026ft 0kts
04-Oct-23 09:02 34.646451 -112.424605 224 5026ft 0kts

Navigation Log

Ident Type
Flight plan parsing failed, navigation log unavailable